createdAt,value
2019-02-05T00:00:45.974Z,62.64
2019-02-05T00:03:21.356Z,62.55
2019-02-05T00:05:53.770Z,62.94
2019-02-05T00:08:25.299Z,62.90
2019-02-05T00:10:57.297Z,63.19
2019-02-05T00:13:28.812Z,63.00
2019-02-05T00:16:00.386Z,62.01
2019-02-05T00:18:32.136Z,62.58
2019-02-05T00:21:03.682Z,62.83
2019-02-05T00:23:35.832Z,62.61
2019-02-05T00:26:07.325Z,62.52
2019-02-05T00:28:38.853Z,62.38
2019-02-05T00:31:10.476Z,62.43
2019-02-05T00:33:42.200Z,62.31
2019-02-05T00:36:14.033Z,62.30
2019-02-05T00:38:45.684Z,62.45
2019-02-05T00:41:17.198Z,62.28
2019-02-05T00:43:48.745Z,62.41
2019-02-05T00:46:20.315Z,62.36
2019-02-05T00:48:52.430Z,62.48
2019-02-05T00:51:23.985Z,62.50
2019-02-05T00:53:55.497Z,62.09
2019-02-05T00:56:27.096Z,61.98
2019-02-05T00:58:58.583Z,61.91
2019-02-05T01:01:30.423Z,62.04
2019-02-05T01:04:02.219Z,61.94
2019-02-05T01:06:33.773Z,62.07
2019-02-05T01:09:07.536Z,62.23
2019-02-05T01:11:39.536Z,62.11
2019-02-05T01:14:12.881Z,63.03
2019-02-05T01:16:44.378Z,63.14
2019-02-05T01:19:16.328Z,62.74
2019-02-05T01:21:47.794Z,62.79
2019-02-05T01:24:20.447Z,62.55
2019-02-05T01:26:51.923Z,62.55
2019-02-05T01:29:23.398Z,62.62
2019-02-05T01:31:54.971Z,62.70
2019-02-05T01:34:26.584Z,62.81
2019-02-05T01:36:58.282Z,62.58
2019-02-05T01:39:29.748Z,63.00
2019-02-05T01:42:01.262Z,63.45
2019-02-05T01:44:32.687Z,63.41
2019-02-05T01:47:04.203Z,62.60
2019-02-05T01:49:36.532Z,61.91
2019-02-05T01:52:08.014Z,62.10
2019-02-05T01:54:39.535Z,62.50
2019-02-05T01:57:10.988Z,62.45
2019-02-05T01:59:42.687Z,62.48
2019-02-05T02:02:14.391Z,62.13
2019-02-05T02:04:45.941Z,62.28
2019-02-05T02:07:17.386Z,62.49
2019-02-05T02:09:48.827Z,62.89
2019-02-05T02:12:20.476Z,63.63
2019-02-05T02:14:51.960Z,63.11
2019-02-05T02:17:23.396Z,62.91
2019-02-05T02:19:55.108Z,62.72
2019-02-05T02:22:26.576Z,62.69
2019-02-05T02:24:58.399Z,62.57
2019-02-05T02:27:29.835Z,63.08
2019-02-05T02:30:02.453Z,62.87
2019-02-05T02:32:33.950Z,62.83
2019-02-05T02:35:05.458Z,63.24
2019-02-05T02:37:36.909Z,63.30
2019-02-05T02:40:09.098Z,63.30
2019-02-05T02:42:40.641Z,63.58
2019-02-05T02:45:13.342Z,63.39
2019-02-05T02:47:44.811Z,63.73
2019-02-05T02:50:17.868Z,63.38
2019-02-05T02:52:49.885Z,63.19
2019-02-05T02:55:21.417Z,63.05
2019-02-05T02:57:52.996Z,63.13
2019-02-05T03:00:24.541Z,63.13
2019-02-05T03:02:55.999Z,63.21
2019-02-05T03:05:27.815Z,63.23
2019-02-05T03:07:59.270Z,63.37
2019-02-05T03:10:32.113Z,63.22
2019-02-05T03:13:03.623Z,63.97
2019-02-05T03:15:35.424Z,63.38
2019-02-05T03:18:06.960Z,63.33
2019-02-05T03:20:38.913Z,63.27
2019-02-05T03:23:10.354Z,63.68
2019-02-05T03:25:41.904Z,63.58
2019-02-05T03:28:13.353Z,63.59
2019-02-05T03:30:44.879Z,63.49
2019-02-05T03:33:16.344Z,63.40
2019-02-05T03:35:48.136Z,63.43
2019-02-05T03:38:19.642Z,63.37
2019-02-05T03:41:10.609Z,63.01
2019-02-05T03:43:42.789Z,62.98
2019-02-05T03:46:17.972Z,63.10
2019-02-05T03:48:50.290Z,62.94
2019-02-05T03:51:47.115Z,63.16
2019-02-05T03:55:12.190Z,63.12
2019-02-05T03:58:52.403Z,62.86
2019-02-05T04:02:28.009Z,62.19
2019-02-05T04:05:33.404Z,62.29
2019-02-05T04:09:08.808Z,62.13
2019-02-05T04:12:44.427Z,62.25
2019-02-05T04:16:04.550Z,62.31
2019-02-05T04:19:20.208Z,62.14
2019-02-05T04:22:41.103Z,61.84
2019-02-05T04:26:14.384Z,61.65
2019-02-05T04:29:29.904Z,61.45
2019-02-05T04:32:52.377Z,62.01
2019-02-05T04:36:32.441Z,61.96
2019-02-05T04:40:32.147Z,61.31
2019-02-05T04:44:07.410Z,61.70
2019-02-05T04:47:19.042Z,61.76
2019-02-05T04:50:16.159Z,61.64
2019-02-05T04:53:32.846Z,61.54
2019-02-05T04:57:07.562Z,61.44
2019-02-05T05:00:29.646Z,61.51
2019-02-05T05:03:59.115Z,61.56
2019-02-05T05:06:58.513Z,61.75
2019-02-05T05:09:58.604Z,61.71
2019-02-05T05:12:31.091Z,61.60
2019-02-05T05:15:02.818Z,61.61
2019-02-05T05:17:34.370Z,61.17
2019-02-05T05:20:09.014Z,61.11
2019-02-05T05:22:40.457Z,61.09
2019-02-05T05:25:13.800Z,61.05
2019-02-05T05:27:45.868Z,60.90
2019-02-05T05:30:19.625Z,60.98
2019-02-05T05:32:51.560Z,60.64
2019-02-05T05:35:23.009Z,60.67
2019-02-05T05:37:54.735Z,60.66
2019-02-05T05:40:26.227Z,60.82
2019-02-05T05:42:57.832Z,60.21
2019-02-05T05:45:29.658Z,60.21
2019-02-05T05:48:01.267Z,60.19
2019-02-05T05:50:33.114Z,60.31
2019-02-05T05:53:05.244Z,60.06
2019-02-05T05:55:36.769Z,60.08
2019-02-05T05:58:08.353Z,60.30
2019-02-05T06:00:39.854Z,60.37
2019-02-05T06:03:11.342Z,59.99
2019-02-05T06:05:42.888Z,60.25
2019-02-05T06:08:14.575Z,60.09
2019-02-05T06:10:46.114Z,60.04
2019-02-05T06:13:17.792Z,59.91
2019-02-05T06:15:49.256Z,60.19
2019-02-05T06:18:21.141Z,59.35
2019-02-05T06:20:52.601Z,59.18
2019-02-05T06:23:24.035Z,59.34
2019-02-05T06:25:55.476Z,59.73
2019-02-05T06:28:34.779Z,59.81
2019-02-05T06:31:00.762Z,60.11
2019-02-05T06:33:32.230Z,59.98
2019-02-05T06:36:03.781Z,59.52
2019-02-05T06:38:35.207Z,59.09
2019-02-05T06:41:06.648Z,59.10
2019-02-05T06:43:38.591Z,59.02
2019-02-05T06:46:10.147Z,59.03
2019-02-05T06:48:41.630Z,58.93
2019-02-05T06:51:13.135Z,59.04
2019-02-05T06:53:44.645Z,59.52
2019-02-05T06:56:16.163Z,59.06
2019-02-05T06:58:47.865Z,58.97
2019-02-05T07:01:19.348Z,59.10
2019-02-05T07:03:50.842Z,58.98
2019-02-05T07:06:22.284Z,58.67
2019-02-05T07:08:53.739Z,58.81
2019-02-05T07:11:25.583Z,58.47
2019-02-05T07:13:58.228Z,58.62
2019-02-05T07:16:29.948Z,58.73
2019-02-05T07:19:01.477Z,58.36
2019-02-05T07:21:32.943Z,59.13
2019-02-05T07:24:04.890Z,59.14
2019-02-05T07:26:36.349Z,59.01
2019-02-05T07:29:08.648Z,58.60
2019-02-05T07:31:40.156Z,58.67
2019-02-05T07:34:11.884Z,58.96
2019-02-05T07:36:43.543Z,58.99
2019-02-05T07:39:14.998Z,59.10
2019-02-05T07:41:46.444Z,59.22
2019-02-05T07:44:17.936Z,59.32
2019-02-05T07:46:49.582Z,58.28
2019-02-05T07:49:21.112Z,57.95
2019-02-05T07:51:52.598Z,57.72
2019-02-05T07:54:24.138Z,57.86
2019-02-05T07:56:55.716Z,58.21
2019-02-05T07:59:27.571Z,57.32
2019-02-05T08:01:59.059Z,57.53
2019-02-05T08:04:30.577Z,57.43
2019-02-05T08:07:02.323Z,57.42
2019-02-05T08:09:33.850Z,57.09
2019-02-05T08:12:05.328Z,57.27
2019-02-05T08:14:38.438Z,57.27
2019-02-05T08:17:10.016Z,56.93
2019-02-05T08:19:41.763Z,56.78
2019-02-05T08:22:13.700Z,56.66
2019-02-05T08:24:45.287Z,57.00
2019-02-05T08:27:16.732Z,57.08
2019-02-05T08:29:48.572Z,57.20
2019-02-05T08:32:20.125Z,57.41
2019-02-05T08:34:51.591Z,57.78
2019-02-05T08:37:23.286Z,57.79
2019-02-05T08:39:54.834Z,57.79
2019-02-05T08:42:26.315Z,58.12
2019-02-05T08:44:57.779Z,57.59
2019-02-05T08:47:29.352Z,57.97
2019-02-05T08:50:01.091Z,57.93
2019-02-05T08:52:32.836Z,58.06
2019-02-05T08:55:04.421Z,57.98
2019-02-05T08:57:35.978Z,58.48
2019-02-05T09:00:12.379Z,58.54
2019-02-05T09:02:44.070Z,58.64
2019-02-05T09:05:16.000Z,59.04
2019-02-05T09:07:47.550Z,58.53
2019-02-05T09:10:31.422Z,58.67
2019-02-05T09:13:03.097Z,58.84
2019-02-05T09:15:35.263Z,59.04
2019-02-05T09:18:07.181Z,59.28
2019-02-05T09:20:38.729Z,59.37
2019-02-05T09:23:10.380Z,59.88
2019-02-05T09:25:41.990Z,59.95
2019-02-05T09:28:15.111Z,59.72
2019-02-05T09:30:46.952Z,60.32
2019-02-05T09:33:18.431Z,60.36
2019-02-05T09:35:49.938Z,60.40
2019-02-05T09:38:21.650Z,60.25
2019-02-05T09:40:53.170Z,61.15
2019-02-05T09:43:24.622Z,60.94
2019-02-05T09:45:56.448Z,61.02
2019-02-05T09:48:28.244Z,61.03
2019-02-05T09:50:59.755Z,61.00
2019-02-05T09:53:31.292Z,61.29
2019-02-05T09:56:03.694Z,61.49
2019-02-05T09:58:35.188Z,62.02
2019-02-05T10:01:07.078Z,61.67
2019-02-05T10:03:38.690Z,61.13
2019-02-05T10:06:10.128Z,61.02
2019-02-05T10:08:41.640Z,60.88
2019-02-05T10:11:13.100Z,60.47
2019-02-05T10:13:44.562Z,60.11
2019-02-05T10:16:16.044Z,59.64
2019-02-05T10:18:47.621Z,59.48
2019-02-05T10:21:19.124Z,58.76
2019-02-05T10:23:51.113Z,58.69
2019-02-05T10:26:22.717Z,58.50
2019-02-05T10:28:54.263Z,58.24
2019-02-05T10:31:26.325Z,58.32
2019-02-05T10:33:58.086Z,58.04
2019-02-05T10:36:30.060Z,58.02
2019-02-05T10:39:01.689Z,58.19
2019-02-05T10:41:34.799Z,58.15
2019-02-05T10:44:06.483Z,58.13
2019-02-05T10:46:38.259Z,58.20
2019-02-05T10:49:10.248Z,58.01
2019-02-05T10:51:41.761Z,57.75
2019-02-05T10:54:13.334Z,57.51
2019-02-05T10:56:44.896Z,57.35
2019-02-05T10:59:16.434Z,56.87
2019-02-05T11:01:48.348Z,56.66
2019-02-05T11:04:20.052Z,56.49
2019-02-05T11:06:51.539Z,56.35
2019-02-05T11:09:23.088Z,55.94
2019-02-05T11:11:54.901Z,55.75
2019-02-05T11:14:26.492Z,55.74
2019-02-05T11:16:58.216Z,55.82
2019-02-05T11:19:29.807Z,55.53
2019-02-05T11:22:01.295Z,55.25
2019-02-05T11:24:32.881Z,54.92
2019-02-05T11:27:04.351Z,54.61
2019-02-05T11:29:35.981Z,54.25
2019-02-05T11:32:08.185Z,54.29
2019-02-05T11:34:39.655Z,54.53
2019-02-05T11:37:11.236Z,54.80
2019-02-05T11:39:42.720Z,55.00
2019-02-05T11:42:14.192Z,56.05
2019-02-05T11:44:45.747Z,55.97
2019-02-05T11:47:17.259Z,55.94
2019-02-05T11:49:49.087Z,55.92
2019-02-05T11:52:20.717Z,56.02
2019-02-05T11:54:52.919Z,56.39
2019-02-05T11:57:25.361Z,56.52
2019-02-05T11:59:57.362Z,57.29
2019-02-05T12:02:28.972Z,56.97
2019-02-05T12:05:00.659Z,57.07
2019-02-05T12:07:32.174Z,56.58
2019-02-05T12:10:03.974Z,56.20
2019-02-05T12:12:35.919Z,55.90
2019-02-05T12:15:09.839Z,55.84
2019-02-05T12:17:41.586Z,56.68
2019-02-05T12:20:14.740Z,56.87
2019-02-05T12:22:46.263Z,58.28
2019-02-05T12:25:18.567Z,58.49
2019-02-05T12:27:50.197Z,58.35
2019-02-05T12:30:26.414Z,58.93
2019-02-05T12:32:57.950Z,59.09
2019-02-05T12:35:29.548Z,58.71
2019-02-05T12:38:01.014Z,58.93
2019-02-05T12:40:32.874Z,58.92
2019-02-05T12:43:04.424Z,59.39
2019-02-05T12:45:36.163Z,58.92
2019-02-05T12:48:07.819Z,59.71
2019-02-05T12:50:39.793Z,58.97
2019-02-05T12:53:11.296Z,58.94
2019-02-05T12:55:42.914Z,59.16
2019-02-05T12:58:14.397Z,58.67
2019-02-05T13:00:58.233Z,57.03
2019-02-05T13:03:25.776Z,56.00
2019-02-05T13:05:57.543Z,56.24
2019-02-05T13:08:29.088Z,56.10
2019-02-05T13:11:01.045Z,56.27
2019-02-05T13:13:32.753Z,56.19
2019-02-05T13:16:04.670Z,56.28
2019-02-05T13:18:37.324Z,56.51
2019-02-05T13:21:08.237Z,56.74
2019-02-05T13:23:39.785Z,56.79
2019-02-05T13:26:11.280Z,57.12
2019-02-05T13:28:43.056Z,57.13
2019-02-05T13:31:14.907Z,57.03
2019-02-05T13:33:46.761Z,56.93
2019-02-05T13:36:18.540Z,56.54
2019-02-05T13:38:50.049Z,56.54
2019-02-05T13:41:21.923Z,56.56
2019-02-05T13:43:53.432Z,56.72
2019-02-05T13:46:25.259Z,56.89
2019-02-05T13:48:57.094Z,56.89
2019-02-05T13:51:28.601Z,56.81
2019-02-05T13:54:00.288Z,56.82
2019-02-05T13:56:32.189Z,56.96
2019-02-05T13:59:03.758Z,56.96
2019-02-05T14:01:35.376Z,57.76
2019-02-05T14:04:06.936Z,58.65
2019-02-05T14:06:38.918Z,58.29
2019-02-05T14:09:13.923Z,58.07
2019-02-05T14:11:45.509Z,57.84
2019-02-05T14:14:17.066Z,57.80
2019-02-05T14:16:49.552Z,58.19
2019-02-05T14:19:21.423Z,58.48
2019-02-05T14:21:53.159Z,59.32
2019-02-05T14:24:24.652Z,59.53
2019-02-05T14:26:56.287Z,59.87
2019-02-05T14:29:27.771Z,60.88
2019-02-05T14:31:59.874Z,61.46
2019-02-05T14:34:31.534Z,60.81
2019-02-05T14:37:03.309Z,60.53
2019-02-05T14:39:35.101Z,60.38
2019-02-05T14:42:07.757Z,61.25
2019-02-05T14:44:39.372Z,61.21
2019-02-05T14:47:11.286Z,61.67
2019-02-05T14:49:42.712Z,62.05
2019-02-05T14:52:14.290Z,61.95
2019-02-05T14:54:45.928Z,62.59
2019-02-05T14:57:17.798Z,62.94
2019-02-05T14:59:49.426Z,63.31
2019-02-05T15:02:20.970Z,63.23
2019-02-05T15:04:52.807Z,63.23
2019-02-05T15:07:24.511Z,63.33
2019-02-05T15:09:56.150Z,63.22
2019-02-05T15:12:27.754Z,63.43
2019-02-05T15:14:59.228Z,63.53
2019-02-05T15:17:30.763Z,64.91
2019-02-05T15:20:02.710Z,64.18
2019-02-05T15:22:35.439Z,64.42
2019-02-05T15:25:08.674Z,64.35
2019-02-05T15:27:40.386Z,64.03
2019-02-05T15:30:17.610Z,63.61
2019-02-05T15:33:00.436Z,63.49
2019-02-05T15:35:32.344Z,63.48
2019-02-05T15:38:04.260Z,64.05
2019-02-05T15:40:36.196Z,64.27
2019-02-05T15:43:08.691Z,64.26
2019-02-05T15:45:40.209Z,64.67
2019-02-05T15:48:12.095Z,64.94
2019-02-05T15:50:43.804Z,64.49
2019-02-05T15:53:15.816Z,64.84
2019-02-05T15:55:48.426Z,64.95
2019-02-05T15:58:20.248Z,65.26
2019-02-05T16:00:51.839Z,65.28
2019-02-05T16:03:23.532Z,64.93
2019-02-05T16:05:55.309Z,65.09
2019-02-05T16:08:27.768Z,64.75
2019-02-05T16:10:59.349Z,64.99
2019-02-05T16:13:31.130Z,64.99
2019-02-05T16:16:02.823Z,65.42
2019-02-05T16:18:34.748Z,65.89
2019-02-05T16:21:06.754Z,66.01
2019-02-05T16:23:38.625Z,65.87
2019-02-05T16:26:10.078Z,65.73
2019-02-05T16:28:41.614Z,66.38
2019-02-05T16:31:13.103Z,66.31
2019-02-05T16:33:45.249Z,66.20
2019-02-05T16:36:16.899Z,66.70
2019-02-05T16:38:48.525Z,66.61
2019-02-05T16:41:20.016Z,66.43
2019-02-05T16:43:51.693Z,66.64
2019-02-05T16:46:23.682Z,66.31
2019-02-05T16:48:55.496Z,66.02
2019-02-05T16:51:26.998Z,65.69
2019-02-05T16:53:58.476Z,66.06
2019-02-05T16:56:30.222Z,65.78
2019-02-05T16:59:02.717Z,65.84
2019-02-05T17:01:34.353Z,65.94
2019-02-05T17:04:06.135Z,66.33
2019-02-05T17:06:38.028Z,66.22
2019-02-05T17:09:16.952Z,65.91
2019-02-05T17:11:48.559Z,65.73
2019-02-05T17:14:20.356Z,65.75
2019-02-05T17:16:51.867Z,65.54
2019-02-05T17:19:23.486Z,65.30
2019-02-05T17:21:55.508Z,65.17
2019-02-05T17:24:27.395Z,65.14
2019-02-05T17:26:58.964Z,64.90
2019-02-05T17:29:30.796Z,64.84
2019-02-05T17:32:02.381Z,64.90
2019-02-05T17:34:34.113Z,65.01
2019-02-05T17:37:05.858Z,66.40
2019-02-05T17:39:37.574Z,66.71
2019-02-05T17:42:09.226Z,66.78
2019-02-05T17:44:40.721Z,66.74
2019-02-05T17:47:12.255Z,66.77
2019-02-05T17:49:43.831Z,66.54
2019-02-05T17:52:16.158Z,66.13
2019-02-05T17:54:47.756Z,66.87
2019-02-05T17:57:19.336Z,66.81
2019-02-05T17:59:51.175Z,66.87
2019-02-05T18:02:22.668Z,66.60
2019-02-05T18:04:54.597Z,66.88
2019-02-05T18:07:26.442Z,67.44
2019-02-05T18:09:59.440Z,67.74
2019-02-05T18:12:30.968Z,68.00
2019-02-05T18:15:02.801Z,68.37
2019-02-05T18:17:34.898Z,67.68
2019-02-05T18:20:08.796Z,67.10
2019-02-05T18:22:40.699Z,67.00
2019-02-05T18:25:15.987Z,66.92
2019-02-05T18:27:48.296Z,67.00
2019-02-05T18:30:27.358Z,66.80
2019-02-05T18:33:04.909Z,66.37
2019-02-05T18:35:34.798Z,65.99
2019-02-05T18:38:08.635Z,66.45
2019-02-05T18:40:42.279Z,66.62
2019-02-05T18:43:14.760Z,66.79
2019-02-05T18:45:46.634Z,67.17
2019-02-05T18:48:18.244Z,67.64
2019-02-05T18:50:50.330Z,68.19
2019-02-05T18:53:22.066Z,68.14
2019-02-05T18:55:54.509Z,68.33
2019-02-05T18:58:27.010Z,68.44
2019-02-05T19:00:59.438Z,68.25
2019-02-05T19:03:31.297Z,68.13
2019-02-05T19:06:03.332Z,67.86
2019-02-05T19:08:35.658Z,67.61
2019-02-05T19:11:07.553Z,67.59
2019-02-05T19:13:39.150Z,67.72
2019-02-05T19:16:12.104Z,68.05
2019-02-05T19:18:44.013Z,68.28
2019-02-05T19:21:15.831Z,68.48
2019-02-05T19:23:49.649Z,68.70
2019-02-05T19:26:28.581Z,68.79
2019-02-05T19:29:00.340Z,69.06
2019-02-05T19:31:34.572Z,69.23
2019-02-05T19:34:09.384Z,69.35
2019-02-05T19:36:41.244Z,69.36
2019-02-05T19:39:13.164Z,69.67
2019-02-05T19:41:45.144Z,70.06
2019-02-05T19:44:16.816Z,70.20
2019-02-05T19:46:54.011Z,70.38
2019-02-05T19:49:48.077Z,70.02
2019-02-05T19:52:20.067Z,69.93
2019-02-05T19:54:52.182Z,70.29
2019-02-05T19:57:24.208Z,69.94
2019-02-05T19:59:56.261Z,70.02
2019-02-05T20:02:28.406Z,70.15
2019-02-05T20:05:00.218Z,70.13
2019-02-05T20:07:32.216Z,69.90
2019-02-05T20:10:04.605Z,69.94
2019-02-05T20:12:36.627Z,69.72
2019-02-05T20:15:09.673Z,69.92
2019-02-05T20:17:41.727Z,69.51
2019-02-05T20:20:15.443Z,70.00
2019-02-05T20:22:47.763Z,69.94
2019-02-05T20:25:19.954Z,69.78
2019-02-05T20:27:52.121Z,69.53
2019-02-05T20:30:24.482Z,69.38
2019-02-05T20:32:57.037Z,69.03
2019-02-05T20:35:28.912Z,69.05
2019-02-05T20:38:01.095Z,68.61
2019-02-05T20:40:32.726Z,68.28
2019-02-05T20:43:04.757Z,67.87
2019-02-05T20:45:36.404Z,67.50
2019-02-05T20:48:08.372Z,67.32
2019-02-05T20:50:40.569Z,67.53
2019-02-05T20:53:14.301Z,67.12
2019-02-05T20:55:47.531Z,66.95
2019-02-05T20:58:19.718Z,67.04
2019-02-05T21:00:51.351Z,66.74
2019-02-05T21:03:24.042Z,66.55
2019-02-05T21:05:56.024Z,66.63
2019-02-05T21:08:27.980Z,66.78
2019-02-05T21:11:00.197Z,66.63
2019-02-05T21:13:32.122Z,66.62
2019-02-05T21:16:04.421Z,66.75
2019-02-05T21:18:36.661Z,66.90
2019-02-05T21:21:08.754Z,66.91
2019-02-05T21:23:40.854Z,67.00
2019-02-05T21:26:12.649Z,66.83
2019-02-05T21:28:44.846Z,66.65
2019-02-05T21:31:16.646Z,66.50
2019-02-05T21:33:48.430Z,66.77
2019-02-05T21:36:20.134Z,67.01
2019-02-05T21:38:52.075Z,67.16
2019-02-05T21:41:24.006Z,67.16
2019-02-05T21:43:55.888Z,67.16
2019-02-05T21:46:27.540Z,67.21
2019-02-05T21:48:59.300Z,67.23
2019-02-05T21:51:40.091Z,67.29
2019-02-05T21:54:04.659Z,67.36
2019-02-05T21:56:36.478Z,67.67
2019-02-05T21:59:08.405Z,67.71
2019-02-05T22:01:40.295Z,67.75
2019-02-05T22:04:12.115Z,68.83
2019-02-05T22:06:43.736Z,68.51
2019-02-05T22:09:15.962Z,68.40
2019-02-05T22:11:47.880Z,68.45
2019-02-05T22:14:19.673Z,68.35
2019-02-05T22:16:51.160Z,68.61
2019-02-05T22:19:23.363Z,68.67
2019-02-05T22:21:55.083Z,69.19
2019-02-05T22:24:26.773Z,69.40
2019-02-05T22:26:58.905Z,69.11
2019-02-05T22:29:30.842Z,69.00
2019-02-05T22:32:03.427Z,68.86
2019-02-05T22:34:39.336Z,69.03
2019-02-05T22:37:08.408Z,69.14
2019-02-05T22:39:40.617Z,69.39
2019-02-05T22:42:12.438Z,69.54
2019-02-05T22:44:44.751Z,69.47
2019-02-05T22:47:16.385Z,69.73
2019-02-05T22:49:48.259Z,69.98
2019-02-05T22:52:19.803Z,69.88
2019-02-05T22:54:51.413Z,69.82
2019-02-05T22:57:23.241Z,70.10
2019-02-05T22:59:54.750Z,69.45
2019-02-05T23:02:26.295Z,69.74
2019-02-05T23:05:39.579Z,69.31
2019-02-05T23:08:11.208Z,69.07
2019-02-05T23:11:26.107Z,68.96
2019-02-05T23:13:57.640Z,68.82
2019-02-05T23:16:29.284Z,68.86
2019-02-05T23:19:00.813Z,69.00
2019-02-05T23:21:32.611Z,69.06
2019-02-05T23:24:04.378Z,69.16
2019-02-05T23:26:36.084Z,69.25
2019-02-05T23:29:07.527Z,69.56
2019-02-05T23:31:39.258Z,69.76
2019-02-05T23:34:11.093Z,70.05
2019-02-05T23:36:43.276Z,69.42
2019-02-05T23:39:14.764Z,69.67
2019-02-05T23:41:46.376Z,69.94
2019-02-05T23:44:17.835Z,70.03
2019-02-05T23:46:49.375Z,70.06
2019-02-05T23:49:21.116Z,69.67
2019-02-05T23:51:52.823Z,69.67
2019-02-05T23:54:24.529Z,70.22
2019-02-05T23:56:56.624Z,70.21
2019-02-05T23:59:28.474Z,69.90
